createdAt,value
2019-02-08T07:15:30.442Z,99.90
2019-02-08T07:20:56.016Z,99.90
2019-02-08T07:26:21.368Z,99.90
2019-02-08T07:31:49.450Z,99.90
2019-02-08T07:37:18.546Z,99.90
2019-02-08T07:42:43.998Z,99.90
2019-02-08T07:48:25.520Z,99.40
2019-02-08T07:53:49.390Z,97.70
2019-02-08T07:59:14.802Z,95.00
2019-02-08T08:04:46.696Z,94.30
2019-02-08T08:10:10.676Z,92.60
2019-02-08T08:15:27.226Z,91.70
2019-02-08T08:21:02.927Z,91.20
2019-02-08T08:26:25.229Z,90.00
2019-02-08T08:31:43.761Z,88.40
2019-02-08T08:37:36.915Z,88.20
2019-02-08T08:43:23.349Z,87.00
2019-02-08T08:49:16.942Z,86.80
2019-02-08T08:55:09.019Z,87.20
2019-02-08T09:00:50.060Z,85.80
2019-02-08T09:06:28.702Z,85.90
2019-02-08T09:11:59.188Z,85.60
2019-02-08T09:17:31.783Z,85.20
2019-02-08T09:23:19.890Z,84.80
2019-02-08T09:29:21.439Z,84.90
2019-02-08T09:35:02.968Z,84.10
2019-02-08T09:40:52.344Z,82.50
2019-02-08T09:46:41.245Z,80.50
2019-02-08T09:52:22.104Z,79.60
2019-02-08T09:57:58.956Z,79.60
2019-02-08T10:03:39.373Z,79.70
2019-02-08T10:09:28.631Z,79.10
2019-02-08T10:15:22.676Z,78.70
2019-02-08T10:21:03.477Z,78.10
2019-02-08T10:27:12.639Z,78.10
2019-02-08T10:33:16.223Z,76.30
2019-02-08T10:39:08.786Z,73.90
2019-02-08T10:44:38.445Z,74.10
2019-02-08T10:50:24.635Z,71.70
2019-02-08T10:56:24.288Z,70.50
2019-02-08T11:02:08.060Z,70.30
2019-02-08T11:07:44.838Z,69.00
2019-02-08T11:13:43.399Z,68.60
2019-02-08T11:19:28.282Z,68.10
2019-02-08T11:24:35.195Z,66.80
2019-02-08T11:29:40.427Z,66.90
2019-02-08T11:34:45.865Z,66.90
2019-02-08T11:39:51.361Z,66.60
2019-02-08T11:44:56.878Z,67.10
2019-02-08T11:50:02.040Z,65.90
2019-02-08T11:55:07.745Z,65.00
2019-02-08T12:00:29.949Z,65.10
2019-02-08T12:05:35.069Z,64.80
2019-02-08T12:10:40.942Z,64.50
2019-02-08T12:15:48.277Z,64.90
2019-02-08T12:20:53.688Z,65.20
2019-02-08T12:25:59.882Z,62.60
2019-02-08T12:31:05.017Z,61.70
2019-02-08T12:36:10.747Z,62.50
2019-02-08T12:41:15.794Z,62.40
2019-02-08T12:46:21.540Z,61.90
2019-02-08T12:51:26.911Z,61.90
2019-02-08T12:56:32.159Z,61.00
2019-02-08T13:01:37.981Z,60.70
2019-02-08T13:18:03.033Z,60.40
2019-02-08T13:23:09.361Z,58.00
2019-02-08T13:28:14.889Z,59.10
2019-02-08T13:33:21.408Z,58.90
2019-02-08T13:38:27.209Z,59.20
2019-02-08T13:43:33.374Z,59.70
2019-02-08T13:48:38.569Z,59.80
2019-02-08T13:53:43.843Z,60.20
2019-02-08T13:58:49.383Z,61.10
2019-02-08T14:03:54.387Z,61.20
2019-02-08T14:08:59.349Z,62.20
2019-02-08T14:14:04.008Z,61.90
2019-02-08T14:19:10.464Z,62.00
2019-02-08T14:24:16.283Z,61.60
2019-02-08T14:29:21.649Z,62.30
2019-02-08T14:34:27.449Z,62.00
2019-02-08T14:39:32.687Z,62.10
2019-02-08T14:44:37.888Z,62.70
2019-02-08T14:49:43.667Z,62.20
2019-02-08T14:54:48.995Z,61.60
2019-02-08T14:59:54.931Z,61.90
2019-02-08T15:05:01.019Z,61.80
2019-02-08T15:10:14.211Z,61.50
2019-02-08T15:15:19.159Z,61.80
